Terminal Aerodrome Forecast
Issued by NWS

Current Version | Previous Version | Text Only | Print | Product List | Glossary Off
Versions: 1 2 3 4 5 6 7 8 9 10 11 12 13 14 15

520
FTUS41 KILN 111741
TAFLCK
TAF
KLCK 111741Z 1118/1218 28010KT P6SM SCT028 BKN050
      TEMPO 1118/1120 BKN028
     FM120000 28005KT P6SM BKN050
     FM120500 22003KT P6SM BKN120
     FM121500 24008KT P6SM BKN050 OVC080=

USA.gov is the U.S. government's official web portal to all federal, state and local government web resources and services.